Time;durP1;ratioP1;P1;durP2;ratioP2;P2;SDS_P1;SDS_P2;PMS_P1;PMS_P2;Temp;Humidity;BMP_temperature;BMP_pressure;BME280_temperature;BME280_humidity;BME280_pressure;Samples;Min_cycle;Max_cycle;Signal;HPM_P1;HPM_P2
2021/05/03 00:01:54;;;;;;;7.07;2.17;;;7.10;83.50;;;;;;4962710;28;20042;-74
2021/05/03 00:04:21;;;;;;;4.15;1.42;;;7.10;83.60;;;;;;4980391;28;20117;-73
2021/05/03 00:06:47;;;;;;;2.50;1.35;;;7.10;83.40;;;;;;4962514;28;20103;-73
2021/05/03 00:09:13;;;;;;;4.97;1.63;;;7.20;83.40;;;;;;4962707;28;20041;-73
2021/05/03 00:11:39;;;;;;;3.08;1.25;;;7.20;83.20;;;;;;4964688;28;20027;-73
2021/05/03 00:14:04;;;;;;;3.75;1.25;;;7.20;83.30;;;;;;4965244;28;20030;-73
2021/05/03 00:16:30;;;;;;;2.47;1.10;;;7.20;83.10;;;;;;4977962;28;20019;-73
2021/05/03 00:18:56;;;;;;;4.72;1.80;;;7.30;83.20;;;;;;4962559;28;20127;-73
2021/05/03 00:21:22;;;;;;;3.13;1.30;;;7.20;83.10;;;;;;4963279;28;20413;-73
2021/05/03 00:23:48;;;;;;;3.88;1.75;;;7.30;83.10;;;;;;4962147;28;20038;-73
2021/05/03 00:26:14;;;;;;;4.35;1.40;;;7.20;83.30;;;;;;4962842;28;20039;-73
2021/05/03 00:28:43;;;;;;;5.68;1.48;;;7.20;83.30;;;;;;4964447;28;20031;-73
2021/05/03 00:31:09;;;;;;;4.63;1.80;;;7.20;83.40;;;;;;4964832;28;20042;-73
2021/05/03 00:33:34;;;;;;;5.38;1.88;;;7.10;83.70;;;;;;4961964;28;20031;-73
2021/05/03 00:36:02;;;;;;;3.72;2.25;;;7.10;84.00;;;;;;4962116;28;20027;-73
2021/05/03 00:38:28;;;;;;;5.50;2.10;;;7.10;83.90;;;;;;4962647;28;20086;-73
2021/05/03 00:40:53;;;;;;;6.60;2.25;;;7.00;84.00;;;;;;4962499;28;20043;-73
2021/05/03 00:43:20;;;;;;;7.13;2.38;;;7.00;84.00;;;;;;4962364;28;20034;-73
2021/05/03 00:45:48;;;;;;;7.20;2.50;;;6.90;84.30;;;;;;4962436;28;20113;-73
2021/05/03 00:48:14;;;;;;;5.45;2.35;;;6.80;84.50;;;;;;4962191;28;20038;-74
2021/05/03 00:50:41;;;;;;;4.45;1.83;;;6.70;84.80;;;;;;4961748;28;20027;-73
2021/05/03 00:53:06;;;;;;;5.47;2.13;;;6.80;85.10;;;;;;4962050;28;20565;-73
2021/05/03 00:55:32;;;;;;;5.53;2.50;;;6.80;85.00;;;;;;4961635;28;20086;-73
2021/05/03 00:57:59;;;;;;;6.38;1.90;;;6.80;85.00;;;;;;4962778;28;20038;-73
2021/05/03 01:00:26;;;;;;;5.82;1.75;;;6.80;84.80;;;;;;4962005;28;20057;-73
2021/05/03 01:02:53;;;;;;;3.38;1.38;;;6.80;84.60;;;;;;4963685;28;20029;-73
2021/05/03 01:05:19;;;;;;;5.63;1.80;;;6.80;84.30;;;;;;4963412;28;20105;-73
2021/05/03 01:07:46;;;;;;;4.32;1.85;;;6.80;84.20;;;;;;4980511;28;20081;-73
2021/05/03 01:10:12;;;;;;;4.80;1.67;;;6.80;84.10;;;;;;4967427;28;20027;-73
2021/05/03 01:12:39;;;;;;;4.63;1.88;;;6.90;84.30;;;;;;4963149;28;20062;-73
2021/05/03 01:15:10;;;;;;;8.15;2.40;;;6.90;84.40;;;;;;4963895;28;20030;-73
2021/05/03 01:17:37;;;;;;;5.90;2.28;;;6.90;84.90;;;;;;4962788;28;20027;-73
2021/05/03 01:20:14;;;;;;;7.15;2.25;;;6.80;85.20;;;;;;4962913;28;20046;-73
2021/05/03 01:22:40;;;;;;;5.13;2.40;;;6.80;85.10;;;;;;4961898;28;20501;-73
2021/05/03 01:25:09;;;;;;;3.72;2.53;;;6.80;85.20;;;;;;4963470;28;20031;-73
2021/05/03 01:27:35;;;;;;;6.15;2.38;;;6.80;85.10;;;;;;4962552;28;20129;-73
2021/05/03 01:30:09;;;;;;;5.15;2.13;;;6.70;85.10;;;;;;4966380;28;20523;-73
2021/05/03 01:32:35;;;;;;;7.65;2.65;;;6.70;85.20;;;;;;4961508;28;20500;-73
2021/05/03 01:35:02;;;;;;;8.88;2.78;;;6.70;85.20;;;;;;4962526;28;20047;-74
2021/05/03 01:37:27;;;;;;;7.50;2.25;;;6.60;85.40;;;;;;4962896;28;20063;-73
2021/05/03 01:39:53;;;;;;;6.30;2.50;;;6.60;85.20;;;;;;4964535;28;20065;-73
2021/05/03 01:42:19;;;;;;;7.45;2.40;;;6.60;85.40;;;;;;4964529;28;20062;-74
2021/05/03 01:44:45;;;;;;;7.00;2.75;;;6.60;85.40;;;;;;4967714;28;20063;-73
2021/05/03 01:47:12;;;;;;;5.03;2.45;;;6.60;85.30;;;;;;4962080;28;20039;-73
2021/05/03 01:49:39;;;;;;;3.70;2.30;;;6.60;85.40;;;;;;4961504;28;20101;-73
2021/05/03 01:52:06;;;;;;;5.32;2.75;;;6.60;85.30;;;;;;4962551;28;20023;-73
2021/05/03 01:54:32;;;;;;;5.20;2.08;;;6.60;85.30;;;;;;4963652;28;20076;-73
2021/05/03 01:56:58;;;;;;;4.50;1.80;;;6.60;85.10;;;;;;4971220;28;20058;-73
2021/05/03 01:59:31;;;;;;;4.00;2.20;;;6.60;85.00;;;;;;4966869;28;20059;-73
2021/05/03 02:01:56;;;;;;;4.47;2.25;;;6.60;85.20;;;;;;4969845;28;20734;-73
2021/05/03 02:04:22;;;;;;;6.28;2.25;;;6.60;85.20;;;;;;4966908;28;20026;-73
2021/05/03 02:06:48;;;;;;;4.28;2.05;;;6.50;85.20;;;;;;4968540;28;20039;-73
2021/05/03 02:09:14;;;;;;;4.30;2.00;;;6.50;85.20;;;;;;4967052;28;20043;-74
2021/05/03 02:11:39;;;;;;;4.28;2.22;;;6.50;85.20;;;;;;4965424;28;20035;-73
2021/05/03 02:14:06;;;;;;;4.03;1.92;;;6.50;85.30;;;;;;4967247;28;20027;-73
2021/05/03 02:16:32;;;;;;;7.57;3.67;;;6.50;85.30;;;;;;4970743;28;20101;-73
2021/05/03 02:18:58;;;;;;;5.18;1.92;;;6.50;85.60;;;;;;4966461;28;20048;-73
2021/05/03 02:21:23;;;;;;;4.38;2.08;;;6.40;85.90;;;;;;4966760;28;20023;-73
2021/05/03 02:23:49;;;;;;;4.45;2.00;;;6.40;86.00;;;;;;4966691;28;20034;-73
2021/05/03 02:26:15;;;;;;;4.53;2.20;;;6.40;86.00;;;;;;4967103;28;20070;-73
2021/05/03 02:28:41;;;;;;;5.03;2.22;;;6.40;86.30;;;;;;4967041;28;20030;-73
2021/05/03 02:31:07;;;;;;;9.07;2.10;;;6.30;86.10;;;;;;4967133;28;20038;-73
2021/05/03 02:33:32;;;;;;;4.45;2.60;;;6.30;86.30;;;;;;4964025;28;20034;-73
2021/05/03 02:35:59;;;;;;;6.18;2.28;;;6.30;86.50;;;;;;4963957;28;20561;-73
2021/05/03 02:38:25;;;;;;;4.45;2.58;;;6.30;86.60;;;;;;4964775;28;20061;-73
2021/05/03 02:40:51;;;;;;;5.63;2.22;;;6.30;86.30;;;;;;4966278;28;20526;-73
2021/05/03 02:43:17;;;;;;;4.85;2.88;;;6.30;86.50;;;;;;4969261;28;20035;-73
2021/05/03 02:45:43;;;;;;;3.25;2.13;;;6.30;86.50;;;;;;4966538;28;20445;-73
2021/05/03 02:48:09;;;;;;;3.40;2.00;;;6.20;86.40;;;;;;4965124;28;20544;-72
2021/05/03 02:50:34;;;;;;;2.40;1.50;;;6.30;86.50;;;;;;4964788;28;20027;-73
2021/05/03 02:53:02;;;;;;;3.35;1.70;;;6.30;86.60;;;;;;4968964;28;20034;-72
2021/05/03 02:55:27;;;;;;;5.10;1.98;;;6.30;86.70;;;;;;4964977;28;20481;-73
2021/05/03 02:57:53;;;;;;;4.75;2.05;;;6.20;86.70;;;;;;4967833;28;20253;-73
2021/05/03 03:00:26;;;;;;;5.18;1.90;;;6.20;86.70;;;;;;4966033;28;20035;-72
2021/05/03 03:02:52;;;;;;;3.72;1.70;;;6.30;86.90;;;;;;4966292;28;20043;-73
2021/05/03 03:05:18;;;;;;;3.30;1.85;;;6.30;86.80;;;;;;4964687;28;20046;-73
2021/05/03 03:07:44;;;;;;;2.85;1.40;;;6.30;86.80;;;;;;4965317;28;20031;-72
2021/05/03 03:10:10;;;;;;;4.13;1.98;;;6.30;86.80;;;;;;4970666;28;20039;-73
2021/05/03 03:12:36;;;;;;;5.05;2.20;;;6.40;87.00;;;;;;4965831;28;20031;-73
2021/05/03 03:15:04;;;;;;;4.82;2.50;;;6.40;87.10;;;;;;4969390;28;20038;-72
2021/05/03 03:17:29;;;;;;;3.67;2.20;;;6.40;87.20;;;;;;4981946;28;20378;-73
2021/05/03 03:19:55;;;;;;;3.75;2.40;;;6.30;87.30;;;;;;4967288;28;20042;-73
2021/05/03 03:22:21;;;;;;;7.65;2.60;;;6.30;87.20;;;;;;4967689;28;20109;-73
2021/05/03 03:24:46;;;;;;;4.15;2.28;;;6.30;87.30;;;;;;4965249;28;20039;-73
2021/05/03 03:27:12;;;;;;;3.47;2.30;;;6.30;87.50;;;;;;4965048;28;20061;-73
2021/05/03 03:29:38;;;;;;;5.63;2.83;;;6.30;87.50;;;;;;4963552;28;20512;-72
2021/05/03 03:32:04;;;;;;;3.97;2.50;;;6.20;87.60;;;;;;4966345;28;20038;-72
2021/05/03 03:34:29;;;;;;;5.25;2.40;;;6.20;87.70;;;;;;4965228;28;20085;-72
2021/05/03 03:36:55;;;;;;;6.10;2.55;;;6.20;87.60;;;;;;4965197;28;20031;-72
2021/05/03 03:39:21;;;;;;;4.28;2.65;;;6.20;87.40;;;;;;4965728;28;20034;-73
2021/05/03 03:41:46;;;;;;;4.38;2.33;;;6.10;87.70;;;;;;4965419;28;20027;-73
2021/05/03 03:44:12;;;;;;;5.70;2.88;;;6.10;87.90;;;;;;4967562;28;20023;-73
2021/05/03 03:46:38;;;;;;;7.78;2.75;;;6.10;88.00;;;;;;4969510;28;20242;-72
2021/05/03 03:49:04;;;;;;;4.95;2.63;;;6.00;88.10;;;;;;4963911;28;20086;-72
2021/05/03 03:51:30;;;;;;;4.32;2.33;;;6.00;88.20;;;;;;4964444;28;20041;-73
2021/05/03 03:53:57;;;;;;;4.40;2.30;;;6.10;88.10;;;;;;4965005;28;20026;-73
2021/05/03 03:56:23;;;;;;;4.15;2.35;;;6.10;88.00;;;;;;4973433;28;20396;-73
2021/05/03 03:58:50;;;;;;;4.75;2.55;;;6.10;87.90;;;;;;4967936;28;20401;-72
2021/05/03 04:01:16;;;;;;;3.90;2.30;;;6.10;87.90;;;;;;4966271;28;20027;-73
2021/05/03 04:03:47;;;;;;;7.45;3.05;;;6.10;88.00;;;;;;4968719;28;20110;-73
2021/05/03 04:06:21;;;;;;;7.45;2.65;;;6.00;88.20;;;;;;4967717;28;20412;-73
2021/05/03 04:09:34;;;;;;;3.28;2.20;;;6.00;88.10;;;;;;4965037;28;20031;-73
2021/05/03 04:24:56;;;;;;;3.70;2.20;;;6.00;88.30;;;;;;4965125;28;20106;-73
2021/05/03 04:27:22;;;;;;;6.18;2.80;;;6.00;88.50;;;;;;4968578;28;20496;-73
2021/05/03 04:29:48;;;;;;;4.28;2.95;;;6.00;88.50;;;;;;4966296;28;20066;-73
2021/05/03 04:32:13;;;;;;;4.72;2.63;;;6.10;88.40;;;;;;4980033;28;20089;-72
2021/05/03 04:34:39;;;;;;;4.18;2.33;;;6.10;88.40;;;;;;4962013;28;20449;-73
2021/05/03 04:37:05;;;;;;;4.30;2.30;;;6.10;88.50;;;;;;4965838;28;20085;-73
2021/05/03 04:39:31;;;;;;;6.10;2.75;;;6.20;88.50;;;;;;4969475;28;20035;-72
2021/05/03 04:41:56;;;;;;;4.72;2.40;;;6.20;88.50;;;;;;4965152;28;20043;-73
2021/05/03 04:44:22;;;;;;;5.78;2.53;;;6.30;88.60;;;;;;4964024;28;20059;-73
2021/05/03 04:46:48;;;;;;;6.75;2.75;;;6.30;88.50;;;;;;4963646;28;20043;-73
2021/05/03 04:49:14;;;;;;;5.55;2.47;;;6.30;88.40;;;;;;4963301;28;20027;-73
2021/05/03 04:51:39;;;;;;;5.38;2.45;;;6.30;88.60;;;;;;4962733;28;20771;-73
2021/05/03 04:54:05;;;;;;;5.45;2.90;;;6.40;88.70;;;;;;4961335;28;20034;-73
2021/05/03 04:56:31;;;;;;;7.82;2.85;;;6.40;88.60;;;;;;4965935;28;20029;-73
2021/05/03 04:58:57;;;;;;;6.10;2.47;;;6.40;88.30;;;;;;4965282;28;20130;-73
2021/05/03 05:01:22;;;;;;;3.60;2.55;;;6.40;88.00;;;;;;4963314;28;20041;-73
2021/05/03 05:03:48;;;;;;;4.25;2.78;;;6.40;87.70;;;;;;4965539;28;20046;-73
2021/05/03 05:06:13;;;;;;;4.70;2.58;;;6.40;87.60;;;;;;4962473;28;20031;-73
2021/05/03 05:08:40;;;;;;;8.05;3.10;;;6.40;87.80;;;;;;4961635;28;20249;-73
2021/05/03 05:11:05;;;;;;;4.75;2.40;;;6.40;87.80;;;;;;4964151;28;20027;-73
2021/05/03 05:13:31;;;;;;;4.88;3.08;;;6.30;87.80;;;;;;4963563;28;20081;-72
2021/05/03 05:15:58;;;;;;;7.63;2.60;;;6.30;87.90;;;;;;4965288;28;20058;-73
2021/05/03 05:18:24;;;;;;;7.43;3.15;;;6.30;87.90;;;;;;4961018;28;20038;-73
2021/05/03 05:20:50;;;;;;;4.78;2.40;;;6.40;87.80;;;;;;4963667;28;20058;-73
2021/05/03 05:23:16;;;;;;;5.15;2.55;;;6.40;87.70;;;;;;4962591;28;20035;-73
2021/05/03 05:25:42;;;;;;;6.18;2.50;;;6.40;87.70;;;;;;4964232;28;20027;-73
2021/05/03 05:28:07;;;;;;;4.80;2.33;;;6.40;87.50;;;;;;4965479;28;20489;-73
2021/05/03 05:30:33;;;;;;;5.30;2.60;;;6.40;87.30;;;;;;4961680;28;20038;-73
2021/05/03 05:32:59;;;;;;;4.20;2.60;;;6.40;87.00;;;;;;4965333;28;20058;-72
2021/05/03 05:35:25;;;;;;;4.10;2.30;;;6.40;87.10;;;;;;4968504;28;20469;-72
2021/05/03 05:37:50;;;;;;;6.32;2.40;;;6.50;87.00;;;;;;4964201;28;20494;-73
2021/05/03 05:40:16;;;;;;;7.82;2.22;;;6.50;86.50;;;;;;4967059;28;20034;-73
2021/05/03 05:42:42;;;;;;;4.55;2.40;;;6.50;86.30;;;;;;4965378;28;20034;-72
2021/05/03 05:45:08;;;;;;;5.20;2.75;;;6.50;86.50;;;;;;4967357;28;20042;-72
2021/05/03 05:47:34;;;;;;;5.82;2.33;;;6.50;86.50;;;;;;4969029;28;20089;-72
2021/05/03 05:50:00;;;;;;;4.30;2.17;;;6.50;86.30;;;;;;4970324;28;20761;-74
2021/05/03 05:52:25;;;;;;;4.25;2.42;;;6.50;86.10;;;;;;4974401;28;20515;-73
2021/05/03 05:54:51;;;;;;;3.75;2.17;;;6.60;86.00;;;;;;4969585;28;20572;-73
2021/05/03 05:57:21;;;;;;;3.25;2.10;;;6.60;85.90;;;;;;4967153;28;20129;-73
2021/05/03 05:59:47;;;;;;;4.93;2.63;;;6.60;86.00;;;;;;4974826;28;20030;-72
2021/05/03 06:02:12;;;;;;;3.72;2.22;;;6.60;85.90;;;;;;4972719;28;20085;-73
2021/05/03 06:04:38;;;;;;;5.00;2.35;;;6.50;85.90;;;;;;4965842;28;20078;-72
2021/05/03 06:07:04;;;;;;;4.22;2.05;;;6.50;85.90;;;;;;4971694;28;20503;-73
2021/05/03 06:09:29;;;;;;;4.35;2.35;;;6.60;85.90;;;;;;4971565;28;20915;-74
2021/05/03 06:11:55;;;;;;;5.65;2.67;;;6.60;85.80;;;;;;4966682;28;20039;-73
2021/05/03 06:14:21;;;;;;;6.38;3.03;;;6.60;85.80;;;;;;4966583;28;20080;-73
2021/05/03 06:16:46;;;;;;;2.50;1.98;;;6.70;85.90;;;;;;4971079;28;20551;-73
2021/05/03 06:19:12;;;;;;;6.55;2.50;;;6.70;85.80;;;;;;4973735;28;20057;-74
2021/05/03 06:21:38;;;;;;;6.75;2.33;;;6.70;85.80;;;;;;4974067;28;20381;-74
2021/05/03 06:24:05;;;;;;;4.78;2.10;;;6.80;85.80;;;;;;4965759;28;20046;-73
2021/05/03 06:26:31;;;;;;;5.20;2.40;;;6.80;85.70;;;;;;4978874;28;20029;-73
2021/05/03 06:29:00;;;;;;;4.13;2.10;;;6.80;85.40;;;;;;4970346;28;20388;-73
2021/05/03 06:31:25;;;;;;;5.60;2.65;;;6.80;85.30;;;;;;4972569;28;20035;-71
2021/05/03 06:33:51;;;;;;;4.20;2.30;;;6.80;85.40;;;;;;4969674;28;20030;-74
2021/05/03 06:36:17;;;;;;;4.82;2.55;;;6.90;85.50;;;;;;4972100;28;20027;-72
2021/05/03 06:38:42;;;;;;;7.10;2.60;;;6.90;85.50;;;;;;4968201;28;20035;-73
2021/05/03 06:41:08;;;;;;;3.35;2.40;;;7.10;85.30;;;;;;4967406;28;20031;-72
2021/05/03 06:43:39;;;;;;;4.85;2.58;;;7.10;85.20;;;;;;4982086;28;20284;-72
2021/05/03 06:46:18;;;;;;;4.28;2.13;;;7.10;85.30;;;;;;4977151;28;20476;-72
2021/05/03 06:48:44;;;;;;;7.30;2.80;;;7.20;85.40;;;;;;4953607;28;20041;-72
2021/05/03 06:51:10;;;;;;;3.92;2.40;;;7.30;85.90;;;;;;4968444;28;20034;-75
2021/05/03 06:53:36;;;;;;;3.50;2.20;;;7.50;84.90;;;;;;4979319;28;20019;-73
2021/05/03 06:56:02;;;;;;;8.45;4.03;;;7.50;84.90;;;;;;4965896;28;20488;-73
2021/05/03 06:58:27;;;;;;;6.80;2.33;;;7.60;84.00;;;;;;4974714;28;20039;-73
2021/05/03 07:00:53;;;;;;;5.55;2.20;;;7.60;84.10;;;;;;4970265;28;20034;-74
2021/05/03 07:03:19;;;;;;;3.88;2.50;;;7.70;84.20;;;;;;4967183;28;20126;-78
2021/05/03 07:05:44;;;;;;;5.13;1.92;;;7.80;84.00;;;;;;4987078;28;20079;-72
2021/05/03 07:08:11;;;;;;;5.75;2.55;;;7.80;83.70;;;;;;4971193;28;20043;-73
2021/05/03 07:10:44;;;;;;;5.82;1.85;;;7.80;83.50;;;;;;4967334;28;20024;-72
2021/05/03 07:13:10;;;;;;;4.10;1.90;;;7.90;83.20;;;;;;4979094;28;20050;-73
2021/05/03 07:15:36;;;;;;;4.28;1.85;;;8.00;82.20;;;;;;4963291;28;20023;-72
2021/05/03 07:18:02;;;;;;;3.75;1.60;;;8.00;81.30;;;;;;4968481;28;20027;-72
2021/05/03 07:20:28;;;;;;;10.50;2.00;;;8.10;81.80;;;;;;4969215;28;20405;-72
2021/05/03 07:22:54;;;;;;;3.15;2.00;;;8.10;80.70;;;;;;4966126;28;20054;-72
2021/05/03 07:25:20;;;;;;;6.45;2.30;;;8.10;81.00;;;;;;4965006;28;20065;-72
2021/05/03 07:27:46;;;;;;;4.75;2.33;;;8.20;81.60;;;;;;4965920;28;20035;-72
2021/05/03 07:30:13;;;;;;;2.55;1.63;;;8.20;80.70;;;;;;4965071;28;20035;-75
2021/05/03 07:32:39;;;;;;;3.10;1.88;;;8.30;80.50;;;;;;4966895;28;20039;-72
2021/05/03 07:35:07;;;;;;;3.42;1.80;;;8.50;80.00;;;;;;4963136;28;20024;-70
2021/05/03 07:37:33;;;;;;;3.03;1.90;;;8.50;79.40;;;;;;4959428;28;20026;-71
2021/05/03 07:39:59;;;;;;;2.95;1.70;;;8.50;77.90;;;;;;4959005;28;20031;-71
2021/05/03 07:42:25;;;;;;;3.80;1.70;;;8.40;77.70;;;;;;4957159;28;20035;-71
2021/05/03 07:44:50;;;;;;;2.90;2.00;;;8.50;78.50;;;;;;4958919;28;20027;-72
2021/05/03 07:47:16;;;;;;;3.50;1.73;;;8.50;77.40;;;;;;4959213;28;20130;-71
2021/05/03 07:49:42;;;;;;;5.68;1.67;;;8.60;77.10;;;;;;4956375;28;20082;-72
2021/05/03 07:52:08;;;;;;;2.05;1.48;;;8.50;77.40;;;;;;4966578;28;20408;-71
2021/05/03 07:54:34;;;;;;;3.88;1.77;;;8.60;77.80;;;;;;4957655;28;20042;-70
2021/05/03 07:57:01;;;;;;;2.83;1.60;;;8.50;77.60;;;;;;4970141;28;20049;-71
2021/05/03 07:59:27;;;;;;;3.00;1.80;;;8.60;77.60;;;;;;4965357;28;20452;-70
2021/05/03 08:01:52;;;;;;;4.60;1.80;;;8.60;76.80;;;;;;4961442;28;20031;-71
2021/05/03 08:04:18;;;;;;;3.25;1.90;;;8.60;77.00;;;;;;4966865;28;20027;-71
2021/05/03 08:06:45;;;;;;;3.95;2.60;;;8.60;77.20;;;;;;4960229;28;20031;-72
2021/05/03 08:09:11;;;;;;;3.60;1.92;;;8.60;77.20;;;;;;4962742;28;20027;-71
2021/05/03 08:11:43;;;;;;;3.30;2.00;;;8.70;77.00;;;;;;4959594;28;20062;-74
2021/05/03 08:14:10;;;;;;;5.53;2.00;;;8.70;76.30;;;;;;4957028;28;20035;-71
2021/05/03 08:16:38;;;;;;;3.53;1.95;;;9.20;78.70;;;;;;4966071;28;20093;-70
2021/05/03 08:19:04;;;;;;;4.03;1.85;;;9.30;75.50;;;;;;4962379;28;20042;-72
2021/05/03 08:21:32;;;;;;;3.45;2.25;;;9.30;73.40;;;;;;4964092;28;20035;-73
2021/05/03 08:23:58;;;;;;;2.83;1.73;;;9.20;74.20;;;;;;4965901;28;20614;-72
2021/05/03 08:26:24;;;;;;;5.50;2.20;;;9.20;74.80;;;;;;4963850;28;20046;-72
2021/05/03 08:28:49;;;;;;;5.05;2.10;;;9.10;75.20;;;;;;4964859;28;20050;-71
2021/05/03 08:31:16;;;;;;;4.80;2.35;;;9.00;75.10;;;;;;4964844;28;20857;-72
2021/05/03 08:33:42;;;;;;;5.47;2.15;;;9.00;76.10;;;;;;4964175;28;20110;-71
2021/05/03 08:36:08;;;;;;;3.42;2.17;;;9.00;76.40;;;;;;4980829;28;20110;-72
2021/05/03 08:38:33;;;;;;;3.70;1.95;;;9.10;76.60;;;;;;4960558;28;20046;-71
2021/05/03 08:41:03;;;;;;;3.10;2.00;;;9.20;75.20;;;;;;4957040;28;20085;-71
2021/05/03 08:43:31;;;;;;;2.40;1.88;;;9.40;75.80;;;;;;4955210;28;20121;-72
2021/05/03 08:45:57;;;;;;;6.63;1.83;;;9.40;75.00;;;;;;4957227;28;20157;-72
2021/05/03 08:48:35;;;;;;;5.90;2.10;;;9.50;75.00;;;;;;4954580;28;20121;-71
2021/05/03 08:51:15;;;;;;;2.20;1.45;;;9.60;74.20;;;;;;4957234;28;20122;-71
2021/05/03 08:53:43;;;;;;;2.45;1.60;;;9.70;74.60;;;;;;4963186;28;20019;-71
2021/05/03 08:56:11;;;;;;;4.53;1.80;;;9.70;73.90;;;;;;4962573;28;20487;-70
2021/05/03 08:58:41;;;;;;;3.45;2.35;;;9.70;73.90;;;;;;4963200;28;20024;-70
2021/05/03 09:01:07;;;;;;;4.45;2.08;;;9.70;73.40;;;;;;4962218;28;20027;-73
2021/05/03 09:03:40;;;;;;;4.90;2.20;;;9.70;74.40;;;;;;4973018;28;20037;-74
2021/05/03 09:06:09;;;;;;;3.22;2.20;;;9.60;74.40;;;;;;4962189;28;20082;-73
2021/05/03 09:08:34;;;;;;;4.47;2.35;;;9.50;74.90;;;;;;4963976;28;20035;-74
2021/05/03 09:11:03;;;;;;;5.07;2.53;;;9.50;75.30;;;;;;4965919;28;20365;-72
2021/05/03 09:13:34;;;;;;;3.80;2.35;;;9.50;75.40;;;;;;4967795;28;20030;-71
2021/05/03 09:16:23;;;;;;;4.72;2.30;;;9.50;75.40;;;;;;4973376;28;20093;-73
2021/05/03 09:18:53;;;;;;;4.13;2.42;;;9.60;74.80;;;;;;4973168;28;20122;-72
2021/05/03 09:21:30;;;;;;;4.65;2.60;;;9.60;75.40;;;;;;4962957;28;20022;-72
2021/05/03 09:24:05;;;;;;;3.65;2.20;;;9.60;75.30;;;;;;4970937;28;20034;-73
2021/05/03 09:27:05;;;;;;;4.80;2.60;;;9.60;75.20;;;;;;4966665;28;20646;-72
2021/05/03 09:29:38;;;;;;;4.13;2.53;;;9.60;75.30;;;;;;4967292;28;20115;-74
2021/05/03 09:32:21;;;;;;;5.53;2.75;;;9.60;75.60;;;;;;4967790;28;20057;-73
2021/05/03 09:34:48;;;;;;;4.07;2.40;;;9.70;75.70;;;;;;4964670;28;20030;-70
2021/05/03 09:37:23;;;;;;;4.80;2.88;;;9.70;75.80;;;;;;4968170;28;20030;-72
2021/05/03 09:39:59;;;;;;;3.03;2.47;;;9.70;75.30;;;;;;4971862;28;20029;-72
2021/05/03 09:42:49;;;;;;;4.45;2.70;;;9.80;75.20;;;;;;4973032;28;20390;-73
2021/05/03 09:45:16;;;;;;;7.20;3.30;;;10.00;73.60;;;;;;4972186;28;20097;-74
2021/05/03 09:47:42;;;;;;;24.75;15.75;;;9.90;73.20;;;;;;4968670;28;20555;-72
2021/05/03 09:50:13;;;;;;;7.68;5.60;;;9.70;74.00;;;;;;4969664;28;20408;-72
2021/05/03 09:52:39;;;;;;;;;;;9.60;75.10;;;;;;4969466;28;20027;-73
2021/05/03 09:55:54;;;;;;;8.38;5.32;;;9.40;76.10;;;;;;4976084;28;20334;-78
2021/05/03 09:58:23;;;;;;;9.30;4.90;;;9.30;76.90;;;;;;4964617;28;20035;-71
2021/05/03 10:00:52;;;;;;;6.28;4.60;;;9.20;77.00;;;;;;4968678;28;20047;-72
2021/05/03 10:03:44;;;;;;;7.00;5.20;;;9.20;77.40;;;;;;4977224;28;20035;-72
2021/05/03 10:06:18;;;;;;;7.80;5.22;;;9.30;78.00;;;;;;4967985;28;20038;-73
2021/05/03 10:08:50;;;;;;;3.70;3.40;;;9.50;77.60;;;;;;4981822;28;20031;-74
2021/05/03 10:11:17;;;;;;;5.30;4.32;;;9.60;77.20;;;;;;4961260;28;20027;-71
2021/05/03 10:13:45;;;;;;;5.43;4.32;;;9.60;75.10;;;;;;4966861;28;20047;-73
2021/05/03 10:16:12;;;;;;;6.32;4.68;;;9.40;75.70;;;;;;4972183;28;20027;-73
2021/05/03 10:18:40;;;;;;;5.38;3.70;;;9.40;76.40;;;;;;4974333;28;20057;-72
2021/05/03 10:21:16;;;;;;;3.92;3.55;;;9.40;76.70;;;;;;4968715;28;20031;-72
2021/05/03 10:23:44;;;;;;;5.18;3.50;;;9.40;76.50;;;;;;4964762;28;20161;-74
2021/05/03 10:26:10;;;;;;;4.30;2.92;;;9.40;76.30;;;;;;4973183;28;20027;-71
2021/05/03 10:28:56;;;;;;;3.20;2.67;;;9.40;76.00;;;;;;4970463;28;20516;-73
2021/05/03 10:31:23;;;;;;;2.28;1.92;;;9.50;75.50;;;;;;4970790;28;20040;-72
2021/05/03 10:33:49;;;;;;;3.47;2.67;;;9.50;75.70;;;;;;4967800;28;20038;-73
2021/05/03 10:36:38;;;;;;;4.47;2.70;;;9.60;75.10;;;;;;4967048;28;20106;-72
2021/05/03 10:39:28;;;;;;;6.90;3.38;;;9.70;75.50;;;;;;4975429;28;20058;-74
2021/05/03 10:42:08;;;;;;;3.20;2.22;;;9.90;76.10;;;;;;4966478;28;20062;-73
2021/05/03 10:44:36;;;;;;;3.13;2.60;;;10.10;75.10;;;;;;4975289;28;20043;-73
2021/05/03 10:47:34;;;;;;;9.05;5.65;;;10.10;74.70;;;;;;4974084;28;20038;-71
2021/05/03 10:50:04;;;;;;;65.93;26.33;;;10.00;73.50;;;;;;4972376;28;20035;-70
2021/05/03 10:52:36;;;;;;;5.65;3.80;;;10.10;75.30;;;;;;4964736;28;20062;-71
2021/05/03 10:55:03;;;;;;;4.82;3.95;;;10.20;72.90;;;;;;4966614;28;20036;-71
2021/05/03 10:57:35;;;;;;;4.88;4.03;;;10.10;73.50;;;;;;4972039;28;20033;-72
2021/05/03 11:00:04;;;;;;;6.45;4.40;;;10.00;73.30;;;;;;4969564;28;20038;-72
2021/05/03 11:02:40;;;;;;;5.13;4.63;;;9.90;72.90;;;;;;4969594;28;20053;-72
2021/05/03 11:05:10;;;;;;;4.07;3.67;;;9.80;73.30;;;;;;4981810;28;20031;-72
2021/05/03 11:08:06;;;;;;;6.72;4.45;;;9.70;73.60;;;;;;4967394;28;20428;-73
2021/05/03 11:11:07;;;;;;;6.30;4.68;;;9.60;74.30;;;;;;4968060;28;20031;-71
2021/05/03 11:13:45;;;;;;;4.55;3.78;;;9.50;74.30;;;;;;4967730;28;20042;-73
2021/05/03 11:16:30;;;;;;;6.15;4.03;;;9.50;75.00;;;;;;4972979;28;20039;-73
2021/05/03 11:18:59;;;;;;;5.50;3.97;;;9.60;74.60;;;;;;4972600;28;20106;-73
2021/05/03 11:21:42;;;;;;;4.13;3.67;;;9.50;74.50;;;;;;4967733;28;20027;-74
2021/05/03 11:24:17;;;;;;;5.13;4.40;;;9.60;74.80;;;;;;4971055;28;20507;-73
2021/05/03 11:26:50;;;;;;;6.95;4.32;;;9.60;74.20;;;;;;4973454;28;20053;-74
2021/05/03 11:29:20;;;;;;;7.40;4.65;;;9.60;74.50;;;;;;4971264;28;20039;-75
2021/05/03 11:31:46;;;;;;;5.68;4.00;;;9.60;73.50;;;;;;4970129;28;20062;-74
2021/05/03 11:34:27;;;;;;;7.10;4.68;;;9.60;74.30;;;;;;4990348;28;20042;-74
2021/05/03 11:37:00;;;;;;;10.35;5.22;;;9.70;73.80;;;;;;4969816;28;20097;-74
2021/05/03 11:39:34;;;;;;;7.68;5.28;;;10.00;74.70;;;;;;4968782;28;20030;-74
2021/05/03 11:47:45;;;;;;;7.47;4.85;;;10.60;71.70;;;;;;4972736;28;20034;-77
2021/05/03 11:50:20;;;;;;;7.70;5.50;;;10.50;71.70;;;;;;4973403;28;20089;-77
2021/05/03 11:52:45;;;;;;;5.97;4.43;;;10.20;72.00;;;;;;4965880;28;20097;-75
2021/05/03 11:55:14;;;;;;;5.43;4.60;;;10.10;72.90;;;;;;4971569;28;20059;-75
2021/05/03 11:57:46;;;;;;;5.80;5.20;;;9.90;72.90;;;;;;4978251;28;20038;-77
2021/05/03 12:00:13;;;;;;;;;;;9.90;73.20;;;;;;4976379;28;20050;-76
2021/05/03 12:02:38;;;;;;;5.55;4.93;;;9.80;73.40;;;;;;4972144;28;19917;-74
2021/05/03 12:05:13;;;;;;;6.43;4.80;;;9.70;73.90;;;;;;4974744;28;20030;-76
2021/05/03 12:07:39;;;;;;;8.15;6.03;;;9.70;74.10;;;;;;4971045;28;20187;-75
2021/05/03 12:10:12;;;;;;;7.90;6.18;;;9.70;74.30;;;;;;4971041;28;20504;-75
2021/05/03 12:12:50;;;;;;;6.60;5.45;;;9.60;74.10;;;;;;4964191;28;20133;-73
2021/05/03 12:15:27;;;;;;;7.95;6.03;;;9.50;74.90;;;;;;4970635;28;20023;-75
2021/05/03 12:18:00;;;;;;;8.45;5.88;;;9.70;76.20;;;;;;4970050;28;20522;-74
2021/05/03 12:20:29;;;;;;;8.65;6.18;;;9.80;74.80;;;;;;4971386;28;20109;-74
2021/05/03 12:23:03;;;;;;;9.15;7.15;;;10.00;74.10;;;;;;4965064;28;20030;-75
2021/05/03 12:25:54;;;;;;;8.38;7.35;;;10.20;73.40;;;;;;4970389;28;20485;-74
2021/05/03 12:28:23;;;;;;;8.40;5.90;;;10.10;73.10;;;;;;4972384;28;20069;-75
2021/05/03 12:30:50;;;;;;;8.98;6.50;;;10.10;74.10;;;;;;4974027;28;20117;-76
2021/05/03 12:33:18;;;;;;;6.85;5.53;;;10.10;74.30;;;;;;4971608;28;20034;-75
2021/05/03 12:35:55;;;;;;;7.25;6.10;;;10.20;74.40;;;;;;4980457;28;20026;-75
2021/05/03 12:38:28;;;;;;;8.55;7.25;;;10.30;74.00;;;;;;4975408;28;20105;-73
2021/05/03 12:40:56;;;;;;;8.07;6.57;;;10.30;73.00;;;;;;4974726;28;20358;-75
2021/05/03 12:43:27;;;;;;;9.32;6.80;;;10.10;73.40;;;;;;4976116;28;20473;-74
2021/05/03 12:53:53;;;;;;;8.52;6.50;;;10.10;74.90;;;;;;4968682;28;20018;-73
2021/05/03 12:59:07;;;;;;;9.70;7.65;;;10.40;74.90;;;;;;4974601;28;20034;-73
2021/05/03 13:01:49;;;;;;;9.05;7.25;;;10.50;73.90;;;;;;4969297;28;20520;-75
2021/05/03 13:04:28;;;;;;;7.22;6.20;;;10.70;73.70;;;;;;4965035;28;21766;-76
2021/05/03 13:07:12;;;;;;;8.77;7.40;;;10.90;73.30;;;;;;4966950;28;20051;-75
2021/05/03 13:29:46;;;;;;;8.35;6.32;;;12.60;67.20;;;;;;4965833;28;20473;-78
2021/05/03 13:32:21;;;;;;;8.75;7.40;;;12.70;65.50;;;;;;4961783;28;20082;-73
2021/05/03 13:34:50;;;;;;;8.10;5.85;;;12.90;65.50;;;;;;4963155;28;20027;-74
2021/05/03 13:37:17;;;;;;;8.35;6.78;;;12.90;65.90;;;;;;4962683;28;20034;-75
2021/05/03 13:39:43;;;;;;;6.95;5.28;;;13.00;67.70;;;;;;4966809;28;20078;-75
2021/05/03 13:42:10;;;;;;;8.75;6.05;;;13.50;68.50;;;;;;4960429;28;20024;-75
2021/05/03 13:44:38;;;;;;;7.22;6.18;;;14.00;65.40;;;;;;4963430;28;20034;-75
2021/05/03 13:47:04;;;;;;;8.02;6.60;;;14.10;62.20;;;;;;4961697;28;20031;-73
2021/05/03 13:49:31;;;;;;;8.88;7.13;;;14.10;63.90;;;;;;4963423;28;20031;-72
2021/05/03 13:51:57;;;;;;;12.57;8.65;;;14.30;63.50;;;;;;4963078;28;20079;-71
2021/05/03 13:54:25;;;;;;;9.45;7.93;;;14.60;62.40;;;;;;4963963;28;20034;-70